createdAt,value
2017-09-25T00:00:21.915Z,15.17
2017-09-25T00:01:21.911Z,15.28
2017-09-25T00:02:21.886Z,15.28
2017-09-25T00:03:21.554Z,15.31
2017-09-25T00:04:22.195Z,15.28
2017-09-25T00:05:21.859Z,15.35
2017-09-25T00:06:21.840Z,15.3
2017-09-25T00:07:21.823Z,15.39
2017-09-25T00:08:21.493Z,15.36
2017-09-25T00:09:22.124Z,15.31
2017-09-25T00:10:21.796Z,15.31
2017-09-25T00:11:21.777Z,15.41
2017-09-25T00:12:22.086Z,15.39
2017-09-25T00:13:22.085Z,15.42
2017-09-25T00:14:21.743Z,15.42
2017-09-25T00:15:21.726Z,15.39
2017-09-25T00:16:21.394Z,15.33
2017-09-25T00:17:22.022Z,15.35
2017-09-25T00:18:21.365Z,15.3
2017-09-25T00:19:21.675Z,15.31
2017-09-25T00:20:21.662Z,15.31
2017-09-25T00:21:21.965Z,15.19
2017-09-25T00:22:21.634Z,15.28
2017-09-25T00:23:21.617Z,15.27
2017-09-25T00:24:21.613Z,15.24
2017-09-25T00:25:21.603Z,15.15
2017-09-25T00:26:21.905Z,15.09
2017-09-25T00:27:21.255Z,15.05
2017-09-25T00:28:21.562Z,15.02
2017-09-25T00:29:21.868Z,15.03
2017-09-25T00:30:21.224Z,14.95
2017-09-25T00:31:21.527Z,14.93
2017-09-25T00:32:21.832Z,14.9
2017-09-25T00:33:21.496Z,14.87
2017-09-25T00:34:21.820Z,14.8
2017-09-25T00:35:21.790Z,14.78
2017-09-25T00:36:21.137Z,14.74
2017-09-25T00:37:21.775Z,14.75
2017-09-25T00:38:21.112Z,14.67
2017-09-25T00:39:21.426Z,14.75
2017-09-25T00:40:21.423Z,14.69
2017-09-25T00:41:21.720Z,14.67
2017-09-25T00:42:21.386Z,14.68
2017-09-25T00:43:21.696Z,14.69
2017-09-25T00:44:21.678Z,14.5
2017-09-25T00:45:21.349Z,14.49
2017-09-25T00:46:21.337Z,14.49
2017-09-25T00:47:21.319Z,14.49
2017-09-25T00:48:21.309Z,14.46
2017-09-25T00:49:21.296Z,14.5
2017-09-25T00:50:21.279Z,14.53
2017-09-25T00:51:21.590Z,14.46
2017-09-25T00:52:21.253Z,14.5
2017-09-25T00:53:21.239Z,14.39
2017-09-25T00:54:21.549Z,14.37
2017-09-25T00:55:20.902Z,14.37
2017-09-25T00:56:21.526Z,14.35
2017-09-25T00:57:21.193Z,14.34
2017-09-25T00:58:20.865Z,14.25
2017-09-25T00:59:21.480Z,14.25
2017-09-25T01:00:21.148Z,14.16
2017-09-25T01:01:21.454Z,14.24
2017-09-25T01:02:21.129Z,14.17
2017-09-25T01:03:21.430Z,14.04
2017-09-25T01:04:20.785Z,14.12
2017-09-25T01:05:21.406Z,14.12
2017-09-25T01:06:21.071Z,13.99
2017-09-25T01:07:21.061Z,14.14
2017-09-25T01:08:21.367Z,14.02
2017-09-25T01:09:21.033Z,14.06
2017-09-25T01:10:21.335Z,13.99
2017-09-25T01:11:21.002Z,13.89
2017-09-25T01:12:21.050Z,13.88
2017-09-25T01:13:20.973Z,13.95
2017-09-25T01:14:20.971Z,13.87
2017-09-25T01:15:20.947Z,13.79
2017-09-25T01:16:20.933Z,13.88
2017-09-25T01:17:20.612Z,13.83
2017-09-25T01:18:21.239Z,13.8
2017-09-25T01:19:20.905Z,13.91
2017-09-25T01:20:20.895Z,13.91
2017-09-25T01:21:20.869Z,13.81
2017-09-25T01:22:21.180Z,13.83
2017-09-25T01:23:20.843Z,13.81
2017-09-25T01:24:21.158Z,13.88
2017-09-25T01:25:21.139Z,13.83
2017-09-25T01:26:21.143Z,13.83
2017-09-25T01:27:20.790Z,13.79
2017-09-25T01:28:20.771Z,13.87
2017-09-25T01:29:21.095Z,13.8
2017-09-25T01:30:21.076Z,13.94
2017-09-25T01:31:20.740Z,13.8
2017-09-25T01:32:20.401Z,13.8
2017-09-25T01:33:21.029Z,13.79
2017-09-25T01:34:21.015Z,13.83
2017-09-25T01:35:21.012Z,13.83
2017-09-25T01:36:20.687Z,13.74
2017-09-25T01:37:20.656Z,13.83
2017-09-25T01:38:20.969Z,13.81
2017-09-25T01:39:20.956Z,13.81
2017-09-25T01:40:20.942Z,13.81
2017-09-25T01:41:20.286Z,13.84
2017-09-25T01:42:20.906Z,13.79
2017-09-25T01:43:20.891Z,13.91
2017-09-25T01:44:20.560Z,13.81
2017-09-25T01:45:20.906Z,13.84
2017-09-25T01:46:20.871Z,13.76
2017-09-25T01:47:20.847Z,13.8
2017-09-25T01:48:20.521Z,13.81
2017-09-25T01:49:20.494Z,13.8
2017-09-25T01:50:20.807Z,13.81
2017-09-25T01:51:20.479Z,13.79
2017-09-25T01:52:20.455Z,13.69
2017-09-25T01:53:20.819Z,13.77
2017-09-25T01:54:20.746Z,13.76
2017-09-25T01:55:20.419Z,13.74
2017-09-25T01:56:20.725Z,13.67
2017-09-25T01:57:20.585Z,13.65
2017-09-25T01:58:20.379Z,13.62
2017-09-25T01:59:20.684Z,13.67
2017-09-25T02:00:20.346Z,13.59
2017-09-25T02:01:20.014Z,13.55
2017-09-25T02:02:20.328Z,13.67
2017-09-25T02:03:20.306Z,13.58
2017-09-25T02:04:20.300Z,13.58
2017-09-25T02:05:20.279Z,13.58
2017-09-25T02:06:20.268Z,13.56
2017-09-25T02:07:19.932Z,13.54
2017-09-25T02:08:19.922Z,13.52
2017-09-25T02:09:20.546Z,13.46
2017-09-25T02:10:20.228Z,13.52
2017-09-25T02:11:20.199Z,13.46
2017-09-25T02:12:20.198Z,13.4
2017-09-25T02:13:20.529Z,13.37
2017-09-25T02:14:19.833Z,13.33
2017-09-25T02:15:20.143Z,13.33
2017-09-25T02:16:20.129Z,13.43
2017-09-25T02:17:19.794Z,13.4
2017-09-25T02:18:20.424Z,13.3
2017-09-25T02:19:19.769Z,13.32
2017-09-25T02:20:19.763Z,13.27
2017-09-25T02:21:19.745Z,13.37
2017-09-25T02:22:20.365Z,13.3
2017-09-25T02:23:20.034Z,13.32
2017-09-25T02:24:20.028Z,13.25
2017-09-25T02:25:20.005Z,13.29
2017-09-25T02:26:20.313Z,13.3
2017-09-25T02:27:19.663Z,13.22
2017-09-25T02:28:20.016Z,13.22
2017-09-25T02:29:20.276Z,13.17
2017-09-25T02:30:19.619Z,13.2
2017-09-25T02:31:19.934Z,13.18
2017-09-25T02:32:19.588Z,13.18
2017-09-25T02:33:19.904Z,13.11
2017-09-25T02:34:20.203Z,13.11
2017-09-25T02:35:20.204Z,13.12
2017-09-25T02:36:20.184Z,13.11
2017-09-25T02:37:19.846Z,13.2
2017-09-25T02:38:19.829Z,13.12
2017-09-25T02:39:19.816Z,13.24
2017-09-25T02:40:19.805Z,13.12
2017-09-25T02:41:19.786Z,13.11
2017-09-25T02:42:20.101Z,13.2
2017-09-25T02:43:20.076Z,13.02
2017-09-25T02:44:19.417Z,13.11
2017-09-25T02:45:19.406Z,13.09
2017-09-25T02:46:19.721Z,13.07
2017-09-25T02:47:19.700Z,13.03
2017-09-25T02:48:19.691Z,13.07
2017-09-25T02:49:19.672Z,13.02
2017-09-25T02:50:19.980Z,13.04
2017-09-25T02:51:19.326Z,13
2017-09-25T02:52:19.634Z,12.96
2017-09-25T02:53:19.939Z,13.07
2017-09-25T02:54:19.935Z,12.96
2017-09-25T02:55:19.915Z,12.96
2017-09-25T02:56:19.901Z,12.97
2017-09-25T02:57:19.886Z,13.02
2017-09-25T02:58:19.549Z,12.93
2017-09-25T02:59:19.851Z,12.97
2017-09-25T03:00:19.851Z,12.96
2017-09-25T03:01:19.832Z,12.95
2017-09-25T03:02:19.821Z,12.95
2017-09-25T03:03:19.479Z,12.99
2017-09-25T03:04:19.143Z,13.02
2017-09-25T03:05:19.817Z,12.99
2017-09-25T03:06:19.764Z,12.97
2017-09-25T03:07:19.434Z,12.99
2017-09-25T03:08:19.728Z,13.03
2017-09-25T03:09:19.712Z,13.02
2017-09-25T03:10:19.386Z,13.18
2017-09-25T03:11:19.693Z,13.18
2017-09-25T03:12:19.033Z,13.18
2017-09-25T03:13:19.340Z,13.14
2017-09-25T03:14:19.657Z,13.29
2017-09-25T03:15:19.636Z,13.25
2017-09-25T03:16:19.614Z,13.33
2017-09-25T03:17:19.286Z,13.3
2017-09-25T03:18:19.617Z,13.33
2017-09-25T03:19:19.262Z,13.27
2017-09-25T03:20:19.566Z,13.37
2017-09-25T03:21:19.228Z,13.41
2017-09-25T03:22:19.210Z,13.4
2017-09-25T03:23:19.202Z,13.38
2017-09-25T03:24:18.861Z,13.36
2017-09-25T03:25:18.847Z,13.32
2017-09-25T03:26:19.486Z,13.3
2017-09-25T03:27:19.470Z,13.4
2017-09-25T03:28:19.125Z,13.3
2017-09-25T03:29:19.448Z,13.43
2017-09-25T03:30:19.425Z,13.41
2017-09-25T03:31:19.088Z,13.46
2017-09-25T03:32:19.073Z,13.44
2017-09-25T03:33:19.060Z,13.46
2017-09-25T03:34:19.047Z,13.46
2017-09-25T03:35:19.030Z,13.54
2017-09-25T03:36:19.344Z,13.54
2017-09-25T03:37:18.686Z,13.56
2017-09-25T03:38:18.675Z,13.55
2017-09-25T03:39:19.304Z,13.54
2017-09-25T03:40:18.643Z,13.58
2017-09-25T03:41:19.273Z,13.59
2017-09-25T03:42:18.616Z,13.61
2017-09-25T03:43:19.244Z,13.61
2017-09-25T03:44:18.911Z,13.67
2017-09-25T03:45:18.567Z,13.63
2017-09-25T03:46:19.201Z,13.61
2017-09-25T03:47:18.871Z,13.58
2017-09-25T03:48:19.181Z,13.54
2017-09-25T03:49:18.887Z,13.58
2017-09-25T03:50:19.149Z,13.61
2017-09-25T03:51:19.130Z,13.65
2017-09-25T03:52:18.478Z,13.7
2017-09-25T03:53:19.110Z,13.61
2017-09-25T03:54:18.447Z,13.63
2017-09-25T03:55:18.434Z,13.63
2017-09-25T03:56:18.428Z,13.65
2017-09-25T03:57:19.251Z,13.65
2017-09-25T03:58:18.717Z,13.73
2017-09-25T03:59:18.378Z,13.79
2017-09-25T04:00:18.688Z,13.77
2017-09-25T04:01:18.674Z,13.77
2017-09-25T04:02:18.660Z,13.73
2017-09-25T04:03:18.965Z,13.7
2017-09-25T04:04:18.633Z,13.63
2017-09-25T04:05:18.942Z,13.69
2017-09-25T04:06:18.608Z,13.67
2017-09-25T04:07:18.919Z,13.63
2017-09-25T04:08:18.892Z,13.69
2017-09-25T04:09:18.240Z,13.65
2017-09-25T04:10:18.244Z,13.69
2017-09-25T04:11:18.857Z,13.63
2017-09-25T04:12:18.528Z,13.67
2017-09-25T04:13:18.187Z,13.63
2017-09-25T04:14:18.502Z,13.63
2017-09-25T04:15:18.815Z,13.71
2017-09-25T04:16:18.486Z,13.7
2017-09-25T04:17:18.454Z,13.77
2017-09-25T04:18:18.443Z,13.77
2017-09-25T04:19:18.744Z,13.63
2017-09-25T04:20:18.410Z,13.63
2017-09-25T04:21:18.779Z,13.61
2017-09-25T04:22:18.381Z,13.61
2017-09-25T04:23:18.062Z,13.62
2017-09-25T04:24:18.703Z,13.63
2017-09-25T04:25:18.351Z,13.63
2017-09-25T04:26:18.349Z,13.63
2017-09-25T04:27:18.644Z,13.61
2017-09-25T04:28:17.980Z,13.54
2017-09-25T04:29:18.296Z,13.55
2017-09-25T04:30:18.594Z,13.58
2017-09-25T04:31:18.599Z,13.59
2017-09-25T04:32:17.926Z,13.61
2017-09-25T04:33:18.553Z,13.56
2017-09-25T04:34:18.557Z,13.63
2017-09-25T04:35:18.206Z,13.62
2017-09-25T04:36:18.189Z,13.58
2017-09-25T04:37:18.502Z,13.59
2017-09-25T04:38:18.485Z,13.62
2017-09-25T04:39:17.825Z,13.61
2017-09-25T04:40:18.137Z,13.65
2017-09-25T04:41:18.125Z,13.59
2017-09-25T04:42:18.434Z,13.55
2017-09-25T04:43:18.100Z,13.62
2017-09-25T04:44:18.088Z,13.58
2017-09-25T04:45:18.069Z,13.52
2017-09-25T04:46:18.058Z,13.65
2017-09-25T04:47:18.372Z,13.7
2017-09-25T04:48:18.350Z,13.74
2017-09-25T04:49:18.014Z,13.73
2017-09-25T04:50:18.055Z,13.7
2017-09-25T04:51:17.991Z,13.7
2017-09-25T04:52:17.969Z,13.7
2017-09-25T04:53:17.958Z,13.76
2017-09-25T04:54:17.631Z,13.7
2017-09-25T04:55:18.259Z,13.7
2017-09-25T04:56:17.597Z,13.76
2017-09-25T04:57:17.905Z,13.67
2017-09-25T04:58:17.571Z,13.8
2017-09-25T04:59:17.879Z,13.71
2017-09-25T05:00:17.862Z,13.71
2017-09-25T05:01:17.849Z,13.77
2017-09-25T05:02:18.159Z,13.79
2017-09-25T05:03:18.149Z,13.73
2017-09-25T05:04:17.818Z,13.77
2017-09-25T05:05:18.121Z,13.71
2017-09-25T05:06:17.793Z,13.69
2017-09-25T05:07:17.774Z,13.71
2017-09-25T05:08:17.437Z,13.69
2017-09-25T05:09:17.739Z,13.87
2017-09-25T05:10:17.727Z,13.71
2017-09-25T05:11:17.396Z,13.88
2017-09-25T05:12:17.708Z,13.77
2017-09-25T05:13:17.689Z,13.87
2017-09-25T05:14:17.679Z,13.88
2017-09-25T05:15:17.658Z,13.83
2017-09-25T05:16:17.982Z,13.83
2017-09-25T05:17:17.644Z,13.79
2017-09-25T05:18:17.309Z,13.81
2017-09-25T05:19:17.941Z,13.8
2017-09-25T05:20:17.910Z,13.79
2017-09-25T05:21:17.899Z,13.81
2017-09-25T05:22:17.885Z,13.81
2017-09-25T05:23:17.555Z,13.89
2017-09-25T05:24:17.862Z,13.8
2017-09-25T05:25:17.843Z,13.77
2017-09-25T05:26:17.510Z,13.8
2017-09-25T05:27:17.818Z,13.81
2017-09-25T05:28:17.480Z,13.81
2017-09-25T05:29:17.471Z,13.87
2017-09-25T05:30:17.777Z,13.94
2017-09-25T05:31:17.759Z,13.88
2017-09-25T05:32:17.111Z,13.84
2017-09-25T05:33:17.093Z,13.92
2017-09-25T05:34:17.081Z,13.83
2017-09-25T05:35:17.391Z,13.81
2017-09-25T05:36:17.700Z,13.81
2017-09-25T05:37:17.041Z,13.79
2017-09-25T05:38:17.355Z,13.84
2017-09-25T05:39:17.335Z,13.79
2017-09-25T05:40:17.647Z,13.79
2017-09-25T05:41:17.307Z,13.89
2017-09-25T05:42:17.611Z,13.83
2017-09-25T05:43:17.599Z,13.84
2017-09-25T05:44:17.594Z,13.91
2017-09-25T05:45:17.252Z,13.91
2017-09-25T05:46:16.918Z,13.92
2017-09-25T05:47:17.228Z,13.95
2017-09-25T05:48:17.543Z,13.94
2017-09-25T05:49:17.209Z,13.94
2017-09-25T05:50:17.184Z,13.95
2017-09-25T05:51:17.172Z,13.94
2017-09-25T05:52:17.484Z,13.95
2017-09-25T05:53:17.470Z,13.94
2017-09-25T05:54:17.450Z,13.92
2017-09-25T05:55:17.441Z,14.02
2017-09-25T05:56:17.105Z,14.02
2017-09-25T05:57:17.290Z,14.01
2017-09-25T05:58:17.401Z,14.02
2017-09-25T05:59:16.741Z,14.07
2017-09-25T06:00:17.048Z,14.06
2017-09-25T06:01:17.360Z,14.12
2017-09-25T06:02:16.700Z,14.06
2017-09-25T06:03:17.009Z,14.1
2017-09-25T06:04:16.679Z,14.09
2017-09-25T06:05:17.301Z,14.1
2017-09-25T06:06:17.303Z,14.06
2017-09-25T06:07:16.642Z,14.06
2017-09-25T06:08:16.952Z,14.07
2017-09-25T06:09:16.610Z,14.06
2017-09-25T06:10:17.254Z,14.02
2017-09-25T06:11:16.913Z,14.06
2017-09-25T06:12:16.898Z,14.16
2017-09-25T06:13:16.877Z,14.16
2017-09-25T06:14:17.188Z,14.17
2017-09-25T06:15:17.171Z,14.19
2017-09-25T06:16:17.163Z,14.19
2017-09-25T06:17:16.831Z,14.17
2017-09-25T06:18:16.811Z,14.13
2017-09-25T06:19:17.119Z,14.13
2017-09-25T06:20:17.105Z,14.2
2017-09-25T06:21:16.776Z,14.21
2017-09-25T06:22:16.444Z,14.27
2017-09-25T06:23:16.743Z,14.34
2017-09-25T06:24:16.746Z,14.24
2017-09-25T06:25:16.396Z,14.27
2017-09-25T06:26:16.707Z,14.32
2017-09-25T06:27:16.693Z,14.28
2017-09-25T06:28:17.018Z,14.37
2017-09-25T06:29:16.675Z,14.35
2017-09-25T06:30:16.652Z,14.34
2017-09-25T06:31:16.959Z,14.39
2017-09-25T06:32:16.628Z,14.44
2017-09-25T06:33:16.938Z,14.44
2017-09-25T06:34:16.605Z,14.47
2017-09-25T06:35:16.922Z,14.53
2017-09-25T06:36:16.574Z,14.49
2017-09-25T06:37:16.881Z,14.46
2017-09-25T06:38:16.871Z,14.54
2017-09-25T06:39:16.537Z,14.47
2017-09-25T06:40:16.843Z,14.49
2017-09-25T06:41:16.827Z,14.47
2017-09-25T06:42:16.816Z,14.5
2017-09-25T06:43:16.483Z,14.53
2017-09-25T06:44:16.788Z,14.47
2017-09-25T06:45:16.789Z,14.5
2017-09-25T06:46:16.771Z,14.43
2017-09-25T06:47:16.120Z,14.47
2017-09-25T06:48:16.754Z,14.47
2017-09-25T06:49:16.732Z,14.49
2017-09-25T06:50:16.399Z,14.44
2017-09-25T06:51:16.381Z,14.6
2017-09-25T06:52:16.050Z,14.5
2017-09-25T06:53:16.354Z,14.53
2017-09-25T06:54:16.345Z,14.52
2017-09-25T06:55:16.332Z,14.53
2017-09-25T06:56:16.649Z,14.54
2017-09-25T06:57:16.626Z,14.52
2017-09-25T06:58:16.292Z,14.69
2017-09-25T06:59:16.282Z,14.67
2017-09-25T07:00:16.585Z,14.75
2017-09-25T07:01:16.579Z,14.69
2017-09-25T07:02:15.922Z,14.75
2017-09-25T07:03:16.556Z,14.69
2017-09-25T07:04:16.545Z,14.75
2017-09-25T07:05:16.203Z,14.69
2017-09-25T07:06:16.203Z,14.75
2017-09-25T07:07:16.496Z,14.78
2017-09-25T07:08:16.168Z,14.78
2017-09-25T07:09:15.835Z,14.81
2017-09-25T07:10:15.824Z,14.74
2017-09-25T07:11:16.460Z,14.74
2017-09-25T07:12:15.795Z,14.78
2017-09-25T07:13:16.114Z,14.8
2017-09-25T07:14:16.414Z,14.69
2017-09-25T07:15:15.757Z,14.78
2017-09-25T07:16:16.077Z,14.87
2017-09-25T07:17:16.054Z,14.88
2017-09-25T07:18:16.050Z,14.9
2017-09-25T07:19:16.350Z,14.94
2017-09-25T07:20:16.016Z,14.95
2017-09-25T07:21:16.429Z,14.98
2017-09-25T07:22:15.998Z,14.94
2017-09-25T07:23:15.665Z,14.98
2017-09-25T07:24:15.972Z,14.91
2017-09-25T07:25:15.959Z,14.95
2017-09-25T07:26:16.274Z,14.99
2017-09-25T07:27:15.928Z,14.95
2017-09-25T07:28:16.278Z,15.02
2017-09-25T07:29:15.906Z,15.05
2017-09-25T07:30:15.894Z,15.15
2017-09-25T07:31:15.878Z,15.03
2017-09-25T07:32:15.549Z,15.13
2017-09-25T07:33:15.859Z,15.09
2017-09-25T07:34:15.850Z,15.17
2017-09-25T07:35:15.833Z,15.2
2017-09-25T07:36:15.826Z,15.2
2017-09-25T07:37:15.803Z,15.12
2017-09-25T07:38:16.117Z,15.24
2017-09-25T07:39:16.117Z,15.24
2017-09-25T07:40:15.769Z,15.31
2017-09-25T07:41:16.082Z,15.31
2017-09-25T07:42:15.751Z,15.24
2017-09-25T07:43:15.415Z,15.3
2017-09-25T07:44:15.723Z,15.3
2017-09-25T07:45:16.037Z,15.31
2017-09-25T07:46:16.023Z,15.3
2017-09-25T07:47:15.367Z,15.38
2017-09-25T07:48:15.359Z,15.45
2017-09-25T07:49:15.665Z,15.35
2017-09-25T07:50:15.655Z,15.45
2017-09-25T07:51:15.965Z,15.56
2017-09-25T07:52:15.307Z,15.52
2017-09-25T07:53:15.620Z,15.52
2017-09-25T07:54:15.619Z,15.56
2017-09-25T07:55:15.277Z,15.52
2017-09-25T07:56:15.901Z,15.51
2017-09-25T07:57:15.775Z,15.52
2017-09-25T07:58:15.563Z,15.54
2017-09-25T07:59:15.545Z,15.61
2017-09-25T08:00:15.532Z,15.66
2017-09-25T08:01:15.205Z,15.63
2017-09-25T08:02:15.542Z,15.7
2017-09-25T08:03:15.828Z,15.72
2017-09-25T08:04:15.167Z,15.72
2017-09-25T08:05:15.477Z,15.64
2017-09-25T08:06:15.467Z,15.82
2017-09-25T08:07:15.456Z,15.89
2017-09-25T08:08:15.760Z,15.93
2017-09-25T08:09:15.441Z,15.92
2017-09-25T08:10:15.419Z,15.99
2017-09-25T08:11:15.729Z,15.96
2017-09-25T08:12:15.395Z,16.04
2017-09-25T08:13:15.702Z,16.03
2017-09-25T08:14:15.572Z,16.16
2017-09-25T08:15:15.363Z,16.22
2017-09-25T08:16:15.672Z,16.23
2017-09-25T08:17:15.347Z,16.27
2017-09-25T08:18:15.327Z,16.23
2017-09-25T08:19:15.316Z,16.37
2017-09-25T08:20:15.629Z,16.25
2017-09-25T08:21:15.291Z,16.33
2017-09-25T08:22:15.602Z,16.4
2017-09-25T08:23:15.289Z,16.41
2017-09-25T08:24:14.945Z,16.48
2017-09-25T08:25:15.262Z,16.52
2017-09-25T08:26:15.243Z,16.58
2017-09-25T08:27:15.234Z,16.59
2017-09-25T08:28:15.222Z,16.7
2017-09-25T08:29:15.588Z,16.71
2017-09-25T08:30:15.519Z,16.81
2017-09-25T08:31:15.194Z,16.78
2017-09-25T08:32:15.501Z,16.77
2017-09-25T08:33:15.167Z,16.8
2017-09-25T08:34:15.496Z,16.9
2017-09-25T08:35:14.824Z,16.9
2017-09-25T08:36:15.138Z,17.06
2017-09-25T08:37:15.450Z,17.1
2017-09-25T08:38:15.111Z,17.13
2017-09-25T08:39:15.424Z,17.08
2017-09-25T08:40:15.415Z,17.15
2017-09-25T08:41:15.078Z,17.18
2017-09-25T08:42:15.395Z,17.17
2017-09-25T08:43:14.738Z,17.33
2017-09-25T08:44:15.372Z,17.32
2017-09-25T08:45:15.360Z,17.28
2017-09-25T08:46:15.356Z,17.36
2017-09-25T08:47:14.698Z,17.36
2017-09-25T08:48:15.328Z,17.38
2017-09-25T08:49:14.999Z,17.44
2017-09-25T08:50:14.989Z,17.41
2017-09-25T08:51:14.658Z,17.46
2017-09-25T08:52:15.291Z,17.51
2017-09-25T08:53:14.646Z,17.55
2017-09-25T08:54:15.320Z,17.54
2017-09-25T08:55:15.266Z,17.55
2017-09-25T08:56:15.250Z,17.69
2017-09-25T08:57:14.922Z,17.64
2017-09-25T08:58:14.910Z,17.73
2017-09-25T08:59:14.909Z,17.73
2017-09-25T09:00:15.210Z,17.85
2017-09-25T09:01:14.559Z,17.91
2017-09-25T09:02:14.878Z,17.87
2017-09-25T09:03:14.859Z,17.91
2017-09-25T09:04:14.853Z,17.88
2017-09-25T09:05:14.842Z,17.73
2017-09-25T09:06:14.829Z,17.69
2017-09-25T09:07:14.501Z,17.66
2017-09-25T09:08:14.814Z,17.64
2017-09-25T09:09:15.133Z,17.73
2017-09-25T09:10:14.795Z,17.66
2017-09-25T09:11:15.109Z,17.67
2017-09-25T09:12:14.791Z,17.62
2017-09-25T09:13:15.088Z,17.64
2017-09-25T09:14:14.435Z,17.67
2017-09-25T09:15:15.072Z,17.59
2017-09-25T09:16:15.069Z,17.64
2017-09-25T09:17:14.724Z,17.62
2017-09-25T09:18:14.731Z,17.67
2017-09-25T09:19:14.713Z,17.59
2017-09-25T09:20:14.699Z,17.57
2017-09-25T09:21:14.690Z,17.57
2017-09-25T09:22:14.677Z,17.54
2017-09-25T09:23:14.668Z,17.55
2017-09-25T09:24:14.983Z,17.64
2017-09-25T09:25:14.644Z,17.66
2017-09-25T09:26:14.636Z,17.69
2017-09-25T09:27:14.949Z,17.66
2017-09-25T09:28:14.620Z,17.73
2017-09-25T09:29:14.624Z,17.71
2017-09-25T09:30:14.604Z,17.73
2017-09-25T09:31:14.909Z,17.85
2017-09-25T09:32:14.576Z,17.87
2017-09-25T09:33:14.575Z,17.94
2017-09-25T09:34:14.881Z,17.88
2017-09-25T09:35:14.549Z,17.94
2017-09-25T09:36:14.859Z,17.99
2017-09-25T09:37:14.528Z,17.97
2017-09-25T09:38:14.518Z,18.12
2017-09-25T09:39:14.187Z,18.13
2017-09-25T09:40:14.495Z,18.21
2017-09-25T09:41:14.487Z,18.09
2017-09-25T09:42:14.481Z,18.17
2017-09-25T09:43:14.471Z,18.22
2017-09-25T09:44:14.780Z,18.27
2017-09-25T09:45:14.448Z,18.28
2017-09-25T09:46:14.764Z,18.33
2017-09-25T09:47:14.111Z,18.31
2017-09-25T09:48:14.095Z,18.31
2017-09-25T09:49:14.414Z,18.27
2017-09-25T09:50:14.419Z,18.43
2017-09-25T09:51:14.395Z,18.44
2017-09-25T09:52:14.716Z,18.55
2017-09-25T09:53:14.695Z,18.58
2017-09-25T09:54:14.371Z,18.57
2017-09-25T09:55:14.354Z,18.55
2017-09-25T09:56:14.663Z,18.65
2017-09-25T09:57:14.866Z,18.73
2017-09-25T09:58:14.328Z,18.79
2017-09-25T09:59:14.316Z,18.82
2017-09-25T10:00:14.307Z,18.91
2017-09-25T10:01:14.627Z,18.9
2017-09-25T10:02:13.971Z,18.91
2017-09-25T10:03:14.604Z,18.84
2017-09-25T10:04:14.599Z,18.87
2017-09-25T10:05:14.266Z,18.92
2017-09-25T10:06:13.936Z,18.91
2017-09-25T10:07:13.930Z,18.98
2017-09-25T10:08:13.917Z,18.83
2017-09-25T10:09:13.916Z,18.83
2017-09-25T10:10:14.215Z,18.84
2017-09-25T10:11:14.208Z,18.8
2017-09-25T10:12:14.202Z,18.83
2017-09-25T10:13:14.521Z,18.8
2017-09-25T10:14:14.502Z,18.82
2017-09-25T10:15:14.501Z,18.76
2017-09-25T10:16:14.164Z,18.86
2017-09-25T10:17:13.840Z,18.92
2017-09-25T10:18:14.146Z,18.97
2017-09-25T10:19:14.140Z,18.98
2017-09-25T10:20:14.454Z,18.95
2017-09-25T10:21:14.452Z,18.86
2017-09-25T10:22:13.795Z,18.99
2017-09-25T10:23:14.431Z,19.02
2017-09-25T10:24:14.092Z,19.05
2017-09-25T10:25:14.082Z,19.13
2017-09-25T10:26:14.406Z,19.14
2017-09-25T10:27:14.068Z,19.18
2017-09-25T10:28:13.735Z,19.08
2017-09-25T10:29:14.051Z,19.14
2017-09-25T10:30:14.397Z,19.13
2017-09-25T10:31:13.742Z,19.23
2017-09-25T10:32:14.022Z,19.2
2017-09-25T10:33:14.346Z,19.21
2017-09-25T10:34:13.696Z,19.25
2017-09-25T10:35:14.327Z,19.32
2017-09-25T10:36:13.994Z,19.31
2017-09-25T10:37:13.988Z,19.4
2017-09-25T10:38:13.974Z,19.46
2017-09-25T10:39:13.962Z,19.43
2017-09-25T10:40:13.989Z,19.61
2017-09-25T10:41:13.957Z,19.57
2017-09-25T10:42:14.262Z,19.8
2017-09-25T10:43:13.934Z,19.78
2017-09-25T10:44:13.926Z,19.9
2017-09-25T10:45:14.239Z,20.05
2017-09-25T10:46:13.912Z,20.12
2017-09-25T10:47:13.579Z,20.09
2017-09-25T10:48:14.222Z,20.16
2017-09-25T10:49:13.890Z,20.1
2017-09-25T10:50:13.888Z,20.1
2017-09-25T10:51:13.555Z,20.12
2017-09-25T10:52:14.188Z,19.97
2017-09-25T10:53:13.537Z,20.05
2017-09-25T10:54:13.850Z,19.97
2017-09-25T10:55:13.530Z,20.05
2017-09-25T10:56:13.837Z,19.98
2017-09-25T10:57:13.825Z,20
2017-09-25T10:58:13.819Z,19.97
2017-09-25T10:59:14.139Z,19.98
2017-09-25T11:00:13.808Z,20.1
2017-09-25T11:01:13.477Z,20.13
2017-09-25T11:02:13.811Z,20.21
2017-09-25T11:03:14.107Z,20.31
2017-09-25T11:04:13.779Z,20.33
2017-09-25T11:05:14.088Z,20.39
2017-09-25T11:06:13.450Z,20.34
2017-09-25T11:07:13.450Z,20.42
2017-09-25T11:08:13.762Z,20.39
2017-09-25T11:09:13.741Z,20.42
2017-09-25T11:10:13.747Z,20.47
2017-09-25T11:11:13.418Z,20.51
2017-09-25T11:12:14.039Z,20.53
2017-09-25T11:13:13.394Z,20.58
2017-09-25T11:14:13.747Z,20.5
2017-09-25T11:15:13.702Z,20.62
2017-09-25T11:16:13.700Z,20.62
2017-09-25T11:17:13.691Z,20.54
2017-09-25T11:18:13.676Z,20.72
2017-09-25T11:19:13.676Z,20.81
2017-09-25T11:20:13.669Z,20.86
2017-09-25T11:21:13.989Z,21.05
2017-09-25T11:22:13.974Z,21.19
2017-09-25T11:23:13.969Z,21.24
2017-09-25T11:24:13.663Z,21.32
2017-09-25T11:25:14.010Z,21.23
2017-09-25T11:26:13.649Z,21.02
2017-09-25T11:27:13.950Z,21.11
2017-09-25T11:28:13.953Z,21.14
2017-09-25T11:29:13.636Z,21.05
2017-09-25T11:30:13.940Z,21.05
2017-09-25T11:31:13.928Z,21.06
2017-09-25T11:32:13.915Z,21.09
2017-09-25T11:33:13.909Z,21.09
2017-09-25T11:34:13.845Z,21.13
2017-09-25T11:35:13.901Z,21.02
2017-09-25T11:36:13.580Z,21.04
2017-09-25T11:37:13.574Z,20.96
2017-09-25T11:38:13.886Z,20.84
2017-09-25T11:39:13.575Z,20.84
2017-09-25T11:40:13.551Z,20.86
2017-09-25T11:41:13.870Z,20.66
2017-09-25T11:42:13.863Z,20.65
2017-09-25T11:43:13.856Z,20.8
2017-09-25T11:44:13.532Z,20.77
2017-09-25T11:45:13.841Z,20.72
2017-09-25T11:46:13.515Z,20.74
2017-09-25T11:47:13.187Z,20.8
2017-09-25T11:48:13.503Z,20.81
2017-09-25T11:49:13.825Z,20.8
2017-09-25T11:50:13.816Z,20.89
2017-09-25T11:51:13.484Z,20.84
2017-09-25T11:52:13.480Z,20.95
2017-09-25T11:53:13.155Z,20.99
2017-09-25T11:54:13.471Z,21.06
2017-09-25T11:55:13.462Z,21.02
2017-09-25T11:56:13.780Z,21.02
2017-09-25T11:57:13.488Z,21.05
2017-09-25T11:58:13.449Z,21.09
2017-09-25T11:59:13.436Z,21.2
2017-09-25T12:00:13.763Z,21.2
2017-09-25T12:01:13.755Z,21.24
2017-09-25T12:02:13.422Z,21.19
2017-09-25T12:03:13.424Z,21.21
2017-09-25T12:04:13.732Z,21.06
2017-09-25T12:05:13.410Z,21.09
2017-09-25T12:06:13.404Z,21.08
2017-09-25T12:07:13.392Z,21.08
2017-09-25T12:08:13.396Z,21.08
2017-09-25T12:09:13.387Z,21.17
2017-09-25T12:10:13.379Z,21.16
2017-09-25T12:11:13.374Z,21.11
2017-09-25T12:12:13.687Z,20.96
2017-09-25T12:13:13.675Z,20.91
2017-09-25T12:14:13.670Z,20.83
2017-09-25T12:15:13.348Z,20.86
2017-09-25T12:16:13.662Z,20.91
2017-09-25T12:17:13.339Z,20.91
2017-09-25T12:18:13.329Z,20.87
2017-09-25T12:19:13.036Z,20.91
2017-09-25T12:20:13.320Z,20.86
2017-09-25T12:21:13.312Z,20.93
2017-09-25T12:22:13.622Z,20.91
2017-09-25T12:23:13.304Z,21.06
2017-09-25T12:24:13.296Z,21.04
2017-09-25T12:25:13.602Z,21.01
2017-09-25T12:26:13.286Z,20.96
2017-09-25T12:27:13.601Z,21.01
2017-09-25T12:28:12.943Z,21.01
2017-09-25T12:29:13.583Z,20.89
2017-09-25T12:30:13.265Z,20.98
2017-09-25T12:31:13.579Z,21.06
2017-09-25T12:32:13.253Z,21.11
2017-09-25T12:33:13.574Z,21.11
2017-09-25T12:34:13.234Z,21.08
2017-09-25T12:35:13.258Z,21.26
2017-09-25T12:36:13.224Z,21.23
2017-09-25T12:37:13.221Z,21.24
2017-09-25T12:38:13.535Z,21.2
2017-09-25T12:39:13.200Z,21.14
2017-09-25T12:40:12.879Z,21.24
2017-09-25T12:41:13.191Z,21.13
2017-09-25T12:42:13.244Z,21.01
2017-09-25T12:43:13.180Z,20.98
2017-09-25T12:44:13.176Z,20.81
2017-09-25T12:45:12.847Z,20.68
2017-09-25T12:46:13.176Z,20.66
2017-09-25T12:47:12.835Z,20.72
2017-09-25T12:48:13.151Z,20.72
2017-09-25T12:49:13.466Z,20.79
2017-09-25T12:50:13.142Z,20.81
2017-09-25T12:51:13.452Z,20.81
2017-09-25T12:52:13.183Z,21.05
2017-09-25T12:53:12.802Z,21.01
2017-09-25T12:54:12.793Z,21.23
2017-09-25T12:55:13.433Z,21.27